createdAt,value
2018-01-23T00:01:41.585Z,6.43
2018-01-23T00:04:08.529Z,11.20
2018-01-23T00:06:36.180Z,6.67
2018-01-23T00:09:02.969Z,7.60
2018-01-23T00:11:30.600Z,8.37
2018-01-23T00:13:57.937Z,7.33
2018-01-23T00:16:24.802Z,7.90
2018-01-23T00:18:51.457Z,5.50
2018-01-23T00:21:18.965Z,9.50
2018-01-23T00:23:45.752Z,8.53
2018-01-23T00:26:12.521Z,8.90
2018-01-23T00:28:39.947Z,6.10
2018-01-23T00:31:07.393Z,6.70
2018-01-23T00:33:34.068Z,6.33
2018-01-23T00:36:00.677Z,5.87
2018-01-23T00:38:27.409Z,7.33
2018-01-23T00:40:54.089Z,5.13
2018-01-23T00:43:20.824Z,7.40
2018-01-23T00:45:47.593Z,11.10
2018-01-23T00:48:14.441Z,5.20
2018-01-23T00:50:41.011Z,5.30
2018-01-23T00:53:07.620Z,5.60
2018-01-23T00:55:34.251Z,6.40
2018-01-23T00:58:01.000Z,8.73
2018-01-23T01:00:28.588Z,4.20
2018-01-23T01:02:55.952Z,6.27
2018-01-23T01:05:23.378Z,3.70
2018-01-23T01:07:50.212Z,3.97
2018-01-23T01:10:17.208Z,4.63
2018-01-23T01:12:44.624Z,4.53
2018-01-23T01:15:11.297Z,3.43
2018-01-23T01:17:38.961Z,15.67
2018-01-23T01:20:07.326Z,3.00
2018-01-23T01:22:33.969Z,4.73
2018-01-23T01:25:00.756Z,3.80
2018-01-23T01:27:28.209Z,3.70
2018-01-23T01:29:55.556Z,4.47
2018-01-23T01:32:22.423Z,3.70
2018-01-23T01:34:49.865Z,4.07
2018-01-23T01:37:17.642Z,5.33
2018-01-23T01:39:44.368Z,3.37
2018-01-23T01:42:11.243Z,4.30
2018-01-23T01:44:38.809Z,5.97
2018-01-23T01:47:06.518Z,3.70
2018-01-23T01:49:33.529Z,3.10
2018-01-23T01:52:00.868Z,3.60
2018-01-23T01:54:28.225Z,3.07
2018-01-23T01:56:55.804Z,3.40
2018-01-23T01:59:22.417Z,2.60
2018-01-23T02:01:49.095Z,3.20
2018-01-23T02:04:15.841Z,3.00
2018-01-23T02:06:42.890Z,3.07
2018-01-23T02:09:09.636Z,4.10
2018-01-23T02:11:36.249Z,2.90
2018-01-23T02:14:02.848Z,4.00
2018-01-23T02:16:29.597Z,2.60
2018-01-23T02:18:56.184Z,1.80
2018-01-23T02:21:23.673Z,2.13
2018-01-23T02:23:50.416Z,2.23
2018-01-23T02:26:17.864Z,4.20
2018-01-23T02:28:45.293Z,7.03
2018-01-23T02:31:12.065Z,4.40
2018-01-23T02:33:39.261Z,4.73
2018-01-23T02:36:07.201Z,2.40
2018-01-23T02:38:34.465Z,2.90
2018-01-23T02:41:01.902Z,2.37
2018-01-23T02:43:28.993Z,3.87
2018-01-23T02:45:56.661Z,2.90
2018-01-23T02:48:24.001Z,2.40
2018-01-23T02:50:50.633Z,2.90
2018-01-23T02:53:17.290Z,2.70
2018-01-23T02:55:44.156Z,3.30
2018-01-23T02:58:12.740Z,2.70
2018-01-23T03:00:39.457Z,3.50
2018-01-23T03:03:06.129Z,3.67
2018-01-23T03:05:32.755Z,4.03
2018-01-23T03:07:59.404Z,3.60
2018-01-23T03:10:27.801Z,9.43
2018-01-23T03:12:54.460Z,5.83
2018-01-23T03:15:24.185Z,3.10
2018-01-23T03:17:50.992Z,3.70
2018-01-23T03:20:19.194Z,3.27
2018-01-23T03:22:46.617Z,7.10
2018-01-23T03:25:13.377Z,4.03
2018-01-23T03:27:41.572Z,3.63
2018-01-23T03:30:08.525Z,6.53
2018-01-23T03:32:35.977Z,2.97
2018-01-23T03:35:03.665Z,3.40
2018-01-23T03:37:31.187Z,3.97
2018-01-23T03:39:57.963Z,3.20
2018-01-23T03:42:25.597Z,5.40
2018-01-23T03:44:52.257Z,3.20
2018-01-23T03:47:19.147Z,6.13
2018-01-23T03:49:46.660Z,4.27
2018-01-23T03:52:13.389Z,8.73
2018-01-23T03:54:40.291Z,3.80
2018-01-23T03:57:07.854Z,4.27
2018-01-23T03:59:35.309Z,5.67
2018-01-23T04:02:02.742Z,6.33
2018-01-23T04:04:29.389Z,4.33
2018-01-23T04:06:56.217Z,3.90
2018-01-23T04:09:22.897Z,2.90
2018-01-23T04:11:49.614Z,2.73
2018-01-23T04:14:16.481Z,2.67
2018-01-23T04:16:43.233Z,3.40
2018-01-23T04:19:10.805Z,3.60
2018-01-23T04:21:38.084Z,2.60
2018-01-23T04:24:04.777Z,5.03
2018-01-23T04:26:31.420Z,3.83
2018-01-23T04:28:58.297Z,3.03
2018-01-23T04:31:25.476Z,4.27
2018-01-23T04:33:52.937Z,4.77
2018-01-23T04:36:20.377Z,4.20
2018-01-23T04:38:47.001Z,7.10
2018-01-23T04:41:13.769Z,5.70
2018-01-23T04:43:40.517Z,6.83
2018-01-23T04:46:07.845Z,5.30
2018-01-23T04:48:34.621Z,7.43
2018-01-23T04:51:02.085Z,4.77
2018-01-23T04:53:29.546Z,4.10
2018-01-23T04:55:57.214Z,5.77
2018-01-23T04:58:24.618Z,5.57
2018-01-23T05:00:51.189Z,7.60
2018-01-23T05:03:17.829Z,12.13
2018-01-23T05:05:44.509Z,6.23
2018-01-23T05:08:12.065Z,9.17
2018-01-23T05:10:38.841Z,6.53
2018-01-23T05:13:05.553Z,5.50
2018-01-23T05:15:32.121Z,6.67
2018-01-23T05:17:58.835Z,8.70
2018-01-23T05:20:26.413Z,7.53
2018-01-23T05:22:53.956Z,3.50
2018-01-23T05:25:20.593Z,9.27
2018-01-23T05:27:47.482Z,6.10
2018-01-23T05:30:15.028Z,9.77
2018-01-23T05:32:41.765Z,5.63
2018-01-23T05:35:09.929Z,7.70
2018-01-23T05:37:36.610Z,4.93
2018-01-23T05:40:04.557Z,6.17
2018-01-23T05:42:32.033Z,12.00
2018-01-23T05:44:59.597Z,11.90
2018-01-23T05:47:26.229Z,10.67
2018-01-23T05:49:54.313Z,10.63
2018-01-23T05:52:21.271Z,18.30
2018-01-23T05:54:48.809Z,13.03
2018-01-23T05:57:15.461Z,13.53
2018-01-23T05:59:44.796Z,16.80
2018-01-23T06:02:12.265Z,27.37
2018-01-23T06:04:38.989Z,16.40
2018-01-23T06:07:06.565Z,14.37
2018-01-23T06:09:33.892Z,8.60
2018-01-23T06:12:00.543Z,6.00
2018-01-23T06:14:27.484Z,8.10
2018-01-23T06:16:54.233Z,10.90
2018-01-23T06:19:20.885Z,11.77
2018-01-23T06:21:47.666Z,6.87
2018-01-23T06:24:14.345Z,5.70
2018-01-23T06:26:41.268Z,13.40
2018-01-23T06:29:07.985Z,9.03
2018-01-23T06:31:35.332Z,5.33
2018-01-23T06:34:02.220Z,9.00
2018-01-23T06:36:28.949Z,18.93
2018-01-23T06:38:56.709Z,12.33
2018-01-23T06:41:24.180Z,11.40
2018-01-23T06:43:52.493Z,15.57
2018-01-23T06:46:19.413Z,14.87
2018-01-23T06:48:47.073Z,10.80
2018-01-23T06:51:14.388Z,15.27
2018-01-23T06:53:41.165Z,13.60
2018-01-23T06:56:08.029Z,5.53
2018-01-23T06:58:35.481Z,7.03
2018-01-23T07:01:02.921Z,6.20
2018-01-23T07:03:29.893Z,4.37
2018-01-23T07:05:58.177Z,4.37
2018-01-23T07:08:25.951Z,6.17
2018-01-23T07:10:53.516Z,9.47
2018-01-23T07:13:21.141Z,6.33
2018-01-23T07:15:47.801Z,16.33
2018-01-23T07:18:14.565Z,9.43
2018-01-23T07:20:41.929Z,7.97
2018-01-23T07:23:09.372Z,8.73
2018-01-23T07:25:39.209Z,19.00
2018-01-23T07:28:06.669Z,14.13
2018-01-23T07:30:34.106Z,26.47
2018-01-23T07:33:00.836Z,22.63
2018-01-23T07:35:27.805Z,14.47
2018-01-23T07:37:56.013Z,13.10
2018-01-23T07:40:23.339Z,7.30
2018-01-23T07:42:50.211Z,17.57
2018-01-23T07:45:17.581Z,13.80
2018-01-23T07:47:45.133Z,14.90
2018-01-23T07:50:13.518Z,14.80
2018-01-23T07:52:40.860Z,20.80
2018-01-23T07:55:08.377Z,12.97
2018-01-23T07:57:35.140Z,16.37
2018-01-23T08:00:02.141Z,11.27
2018-01-23T08:02:30.915Z,12.07
2018-01-23T08:04:57.441Z,12.27
2018-01-23T08:07:24.217Z,13.47
2018-01-23T08:09:51.649Z,15.77
2018-01-23T08:12:19.189Z,16.20
2018-01-23T08:14:46.002Z,11.03
2018-01-23T08:17:13.562Z,21.47
2018-01-23T08:19:41.018Z,10.73
2018-01-23T08:22:08.349Z,13.13
2018-01-23T08:24:35.125Z,13.87
2018-01-23T08:27:03.147Z,13.97
2018-01-23T08:29:29.833Z,13.37
2018-01-23T08:31:56.557Z,13.30
2018-01-23T08:34:23.185Z,10.20
2018-01-23T08:36:49.885Z,10.93
2018-01-23T08:39:17.369Z,8.40
2018-01-23T08:41:44.160Z,10.47
2018-01-23T08:44:12.205Z,13.23
2018-01-23T08:46:39.012Z,16.03
2018-01-23T08:49:06.365Z,17.60
2018-01-23T08:51:34.091Z,10.30
2018-01-23T08:54:00.884Z,10.93
2018-01-23T08:56:28.343Z,13.30
2018-01-23T08:58:55.914Z,13.40
2018-01-23T09:01:23.241Z,13.57
2018-01-23T09:03:49.914Z,14.43
2018-01-23T09:06:17.474Z,16.57
2018-01-23T09:08:44.921Z,12.57
2018-01-23T09:11:12.697Z,11.73
2018-01-23T09:13:39.557Z,15.27
2018-01-23T09:16:07.057Z,10.00
2018-01-23T09:18:33.725Z,11.27
2018-01-23T09:21:00.364Z,8.53
2018-01-23T09:23:27.035Z,12.83
2018-01-23T09:25:55.307Z,12.83
2018-01-23T09:28:22.893Z,8.40
2018-01-23T09:30:50.233Z,10.90
2018-01-23T09:33:17.209Z,13.97
2018-01-23T09:35:44.644Z,21.27
2018-01-23T09:38:11.293Z,20.30
2018-01-23T09:40:38.779Z,13.23
2018-01-23T09:43:06.225Z,16.60
2018-01-23T09:45:33.571Z,20.40
2018-01-23T09:48:00.931Z,17.30
2018-01-23T09:50:27.701Z,20.23
2018-01-23T09:52:55.186Z,18.20
2018-01-23T09:55:21.786Z,12.60
2018-01-23T09:57:49.572Z,17.33
2018-01-23T10:00:17.857Z,11.80
2018-01-23T10:02:45.188Z,18.10
2018-01-23T10:05:11.837Z,20.10
2018-01-23T10:07:39.874Z,11.87
2018-01-23T10:10:06.465Z,18.47
2018-01-23T10:12:33.364Z,17.13
2018-01-23T10:15:00.173Z,20.57
2018-01-23T10:17:27.572Z,13.17
2018-01-23T10:19:54.284Z,19.53
2018-01-23T10:22:21.769Z,10.20
2018-01-23T10:24:48.796Z,12.23
2018-01-23T10:27:16.657Z,17.93
2018-01-23T10:29:43.675Z,13.50
2018-01-23T10:32:10.361Z,15.00
2018-01-23T10:34:37.705Z,21.53
2018-01-23T10:37:04.586Z,16.70
2018-01-23T10:39:31.369Z,15.13
2018-01-23T10:41:58.065Z,24.93
2018-01-23T10:44:25.384Z,21.60
2018-01-23T10:46:52.265Z,17.70
2018-01-23T10:49:19.939Z,14.37
2018-01-23T10:51:47.278Z,17.63
2018-01-23T10:54:14.608Z,24.97
2018-01-23T10:56:41.256Z,14.10
2018-01-23T10:59:08.149Z,15.90
2018-01-23T11:01:41.953Z,17.43
2018-01-23T11:04:09.513Z,16.13
2018-01-23T11:06:38.009Z,19.63
2018-01-23T11:09:05.338Z,16.40
2018-01-23T11:11:32.076Z,13.77
2018-01-23T11:13:58.668Z,18.33
2018-01-23T11:16:25.353Z,18.43
2018-01-23T11:18:52.108Z,13.00
2018-01-23T11:21:19.014Z,19.47
2018-01-23T11:23:45.604Z,17.47
2018-01-23T11:26:12.793Z,22.60
2018-01-23T11:28:41.105Z,14.23
2018-01-23T11:31:07.787Z,19.83
2018-01-23T11:33:35.081Z,12.63
2018-01-23T11:36:02.601Z,14.13
2018-01-23T11:38:29.355Z,13.17
2018-01-23T11:40:56.003Z,11.50
2018-01-23T11:43:24.116Z,21.63
2018-01-23T11:45:51.539Z,17.00
2018-01-23T11:48:18.869Z,11.37
2018-01-23T11:50:46.601Z,9.30
2018-01-23T11:53:14.025Z,16.70
2018-01-23T11:55:40.692Z,12.83
2018-01-23T11:58:07.541Z,18.93
2018-01-23T12:00:34.918Z,12.80
2018-01-23T12:03:02.370Z,15.27
2018-01-23T12:05:29.801Z,11.00
2018-01-23T12:07:56.508Z,14.03
2018-01-23T12:10:23.317Z,29.43
2018-01-23T12:12:50.889Z,17.47
2018-01-23T12:15:18.339Z,35.30
2018-01-23T12:17:45.738Z,25.17
2018-01-23T12:20:12.337Z,20.00
2018-01-23T12:22:39.193Z,13.17
2018-01-23T12:25:05.909Z,11.77
2018-01-23T12:27:32.684Z,12.53
2018-01-23T12:29:59.324Z,19.73
2018-01-23T12:32:26.042Z,20.27
2018-01-23T12:34:53.035Z,15.90
2018-01-23T12:37:20.465Z,17.20
2018-01-23T12:39:47.129Z,20.13
2018-01-23T12:42:14.129Z,18.93
2018-01-23T12:44:40.928Z,15.80
2018-01-23T12:47:07.884Z,12.53
2018-01-23T12:49:35.204Z,13.73
2018-01-23T12:52:01.993Z,10.87
2018-01-23T12:54:29.660Z,13.70
2018-01-23T12:56:57.115Z,14.80
2018-01-23T12:59:24.610Z,14.63
2018-01-23T13:01:51.193Z,12.40
2018-01-23T13:04:17.841Z,12.47
2018-01-23T13:06:44.820Z,14.10
2018-01-23T13:09:12.276Z,19.03
2018-01-23T13:11:38.890Z,14.87
2018-01-23T13:14:05.545Z,13.23
2018-01-23T13:16:33.593Z,17.73
2018-01-23T13:19:00.253Z,25.60
2018-01-23T13:21:26.941Z,20.47
2018-01-23T13:23:54.405Z,11.67
2018-01-23T13:26:21.940Z,15.10
2018-01-23T13:28:48.708Z,13.77
2018-01-23T13:31:16.300Z,11.40
2018-01-23T13:33:42.988Z,15.60
2018-01-23T13:36:09.753Z,15.17
2018-01-23T13:38:36.608Z,12.60
2018-01-23T13:41:04.075Z,8.07
2018-01-23T13:43:31.592Z,15.03
2018-01-23T13:45:58.233Z,12.30
2018-01-23T13:48:24.889Z,14.70
2018-01-23T13:50:51.633Z,11.27
2018-01-23T13:53:18.283Z,12.63
2018-01-23T13:55:44.905Z,19.23
2018-01-23T13:58:11.545Z,10.23
2018-01-23T14:00:38.217Z,17.17
2018-01-23T14:03:07.131Z,8.17
2018-01-23T14:05:33.833Z,7.80
2018-01-23T14:08:00.497Z,12.60
2018-01-23T14:10:28.593Z,25.20
2018-01-23T14:12:55.441Z,12.93
2018-01-23T14:15:22.073Z,12.07
2018-01-23T14:17:50.256Z,11.60
2018-01-23T14:20:17.124Z,17.97
2018-01-23T14:22:44.683Z,18.07
2018-01-23T14:25:12.263Z,11.20
2018-01-23T14:27:39.689Z,16.73
2018-01-23T14:30:07.745Z,16.23
2018-01-23T14:32:34.401Z,18.93
2018-01-23T14:35:01.026Z,20.63
2018-01-23T14:37:28.021Z,15.53
2018-01-23T14:39:55.346Z,15.80
2018-01-23T14:42:22.235Z,18.60
2018-01-23T14:44:49.900Z,15.73
2018-01-23T14:47:18.385Z,16.87
2018-01-23T14:49:45.844Z,17.83
2018-01-23T14:52:13.173Z,10.70
2018-01-23T14:54:39.844Z,17.30
2018-01-23T14:57:06.566Z,8.03
2018-01-23T14:59:33.214Z,13.97
2018-01-23T15:02:01.730Z,9.80
2018-01-23T15:04:29.162Z,14.20
2018-01-23T15:06:56.859Z,14.63
2018-01-23T15:09:25.242Z,7.60
2018-01-23T15:11:52.828Z,8.20
2018-01-23T15:14:19.652Z,20.33
2018-01-23T15:16:47.032Z,8.13
2018-01-23T15:19:13.737Z,10.07
2018-01-23T15:21:40.505Z,13.00
2018-01-23T15:24:07.917Z,6.77
2018-01-23T15:26:35.634Z,7.50
2018-01-23T15:29:02.944Z,8.33
2018-01-23T15:31:30.761Z,15.87
2018-01-23T15:33:58.290Z,9.87
2018-01-23T15:36:24.995Z,13.43
2018-01-23T15:38:51.820Z,14.83
2018-01-23T15:41:19.689Z,26.90
2018-01-23T15:43:47.137Z,13.00
2018-01-23T15:46:13.772Z,12.87
2018-01-23T15:48:41.236Z,8.13
2018-01-23T15:51:07.865Z,8.73
2018-01-23T15:53:35.241Z,10.47
2018-01-23T15:56:02.585Z,16.30
2018-01-23T15:58:29.225Z,11.60
2018-01-23T16:00:56.009Z,8.60
2018-01-23T16:03:23.569Z,8.63
2018-01-23T16:05:50.914Z,9.23
2018-01-23T16:08:18.492Z,13.07
2018-01-23T16:10:46.035Z,9.03
2018-01-23T16:13:14.197Z,5.93
2018-01-23T16:15:41.089Z,6.83
2018-01-23T16:18:08.513Z,5.83
2018-01-23T16:20:35.394Z,4.60
2018-01-23T16:23:02.773Z,4.53
2018-01-23T16:25:29.497Z,4.80
2018-01-23T16:27:56.450Z,4.53
2018-01-23T16:30:23.835Z,15.90
2018-01-23T16:32:50.666Z,67.10
2018-01-23T16:35:18.161Z,51.93
2018-01-23T16:37:44.729Z,42.60
2018-01-23T16:40:11.485Z,18.00
2018-01-23T16:42:38.221Z,11.50
2018-01-23T16:45:05.001Z,5.83
2018-01-23T16:47:32.681Z,7.13
2018-01-23T16:49:59.412Z,6.87
2018-01-23T16:52:26.803Z,7.93
2018-01-23T16:54:53.657Z,17.13
2018-01-23T16:57:20.361Z,14.23
2018-01-23T16:59:48.139Z,13.07
2018-01-23T17:02:15.679Z,11.80
2018-01-23T17:04:42.401Z,8.83
2018-01-23T17:07:09.073Z,16.47
2018-01-23T17:09:36.548Z,19.03
2018-01-23T17:12:04.258Z,9.43
2018-01-23T17:14:30.949Z,8.27
2018-01-23T17:16:58.292Z,14.03
2018-01-23T17:19:25.809Z,5.87
2018-01-23T17:21:52.393Z,8.60
2018-01-23T17:24:19.993Z,6.87
2018-01-23T17:26:47.442Z,10.37
2018-01-23T17:29:15.725Z,9.37
2018-01-23T17:31:42.358Z,5.27
2018-01-23T17:34:10.545Z,4.47
2018-01-23T17:36:37.826Z,5.70
2018-01-23T17:39:05.381Z,22.47
2018-01-23T17:41:32.745Z,40.53
2018-01-23T17:44:00.383Z,90.37
2018-01-23T17:46:27.273Z,62.50
2018-01-23T17:48:55.035Z,42.20
2018-01-23T17:51:22.513Z,27.27
2018-01-23T17:53:49.841Z,15.50
2018-01-23T17:56:16.590Z,10.80
2018-01-23T17:58:49.390Z,7.17
2018-01-23T18:01:17.281Z,15.33
2018-01-23T18:03:45.050Z,12.40
2018-01-23T18:06:11.764Z,15.70
2018-01-23T18:08:39.364Z,9.97
2018-01-23T18:11:06.211Z,6.30
2018-01-23T18:13:33.025Z,7.87
2018-01-23T18:16:00.561Z,8.20
2018-01-23T18:18:27.230Z,7.67
2018-01-23T18:20:54.625Z,5.47
2018-01-23T18:23:21.473Z,5.47
2018-01-23T18:25:48.284Z,5.20
2018-01-23T18:28:15.858Z,8.10
2018-01-23T18:30:43.638Z,7.07
2018-01-23T18:33:10.265Z,4.70
2018-01-23T18:35:37.713Z,5.67
2018-01-23T18:38:05.745Z,4.60
2018-01-23T18:40:32.753Z,3.83
2018-01-23T18:43:00.090Z,5.27
2018-01-23T18:45:26.723Z,4.00
2018-01-23T18:47:54.265Z,4.23
2018-01-23T18:50:20.834Z,3.37
2018-01-23T18:52:47.814Z,4.33
2018-01-23T18:55:15.259Z,6.90
2018-01-23T18:57:41.891Z,3.90
2018-01-23T19:00:08.577Z,3.80
2018-01-23T19:02:35.386Z,3.30
2018-01-23T19:05:02.156Z,4.10
2018-01-23T19:07:29.516Z,7.90
2018-01-23T19:09:56.954Z,4.97
2018-01-23T19:12:24.137Z,5.90
2018-01-23T19:14:51.561Z,7.30
2018-01-23T19:17:18.345Z,3.63
2018-01-23T19:19:45.876Z,3.43
2018-01-23T19:22:12.521Z,5.40
2018-01-23T19:24:40.747Z,8.30
2018-01-23T19:27:07.476Z,5.37
2018-01-23T19:29:34.897Z,5.03
2018-01-23T19:32:01.554Z,8.07
2018-01-23T19:34:28.200Z,13.10
2018-01-23T19:36:55.009Z,12.50
2018-01-23T19:39:21.857Z,8.70
2018-01-23T19:41:48.798Z,7.50
2018-01-23T19:44:15.577Z,4.83
2018-01-23T19:46:42.230Z,10.43
2018-01-23T19:49:09.619Z,4.50
2018-01-23T19:51:37.078Z,4.00
2018-01-23T19:54:04.668Z,4.97
2018-01-23T19:56:31.505Z,4.03
2018-01-23T19:58:58.214Z,4.07
2018-01-23T20:01:24.862Z,4.70
2018-01-23T20:03:51.584Z,5.10
2018-01-23T20:06:18.240Z,5.57
2018-01-23T20:08:44.834Z,4.33
2018-01-23T20:11:11.449Z,3.93
2018-01-23T20:13:38.926Z,4.87
2018-01-23T20:16:06.376Z,3.70
2018-01-23T20:18:34.132Z,17.43
2018-01-23T20:21:01.105Z,8.30
2018-01-23T20:23:28.546Z,6.17
2018-01-23T20:25:55.416Z,4.53
2018-01-23T20:28:22.980Z,5.03
2018-01-23T20:30:50.307Z,3.23
2018-01-23T20:33:17.188Z,3.00
2018-01-23T20:35:44.643Z,3.47
2018-01-23T20:38:11.996Z,5.63
2018-01-23T20:40:39.562Z,5.27
2018-01-23T20:43:06.876Z,3.33
2018-01-23T20:45:34.502Z,3.27
2018-01-23T20:48:01.921Z,4.20
2018-01-23T20:50:28.812Z,3.80
2018-01-23T20:52:56.372Z,3.50
2018-01-23T20:55:23.796Z,4.00
2018-01-23T20:57:50.777Z,5.60
2018-01-23T21:00:18.275Z,3.67
2018-01-23T21:02:45.005Z,3.87
2018-01-23T21:05:11.721Z,6.50
2018-01-23T21:07:38.398Z,7.03
2018-01-23T21:10:05.845Z,3.43
2018-01-23T21:12:33.275Z,6.30
2018-01-23T21:14:59.940Z,8.30
2018-01-23T21:17:27.401Z,6.40
2018-01-23T21:19:55.700Z,4.07
2018-01-23T21:22:23.352Z,3.70
2018-01-23T21:24:50.652Z,3.50
2018-01-23T21:27:17.765Z,3.50
2018-01-23T21:29:45.273Z,4.20
2018-01-23T21:32:11.934Z,4.20
2018-01-23T21:34:38.595Z,4.60
2018-01-23T21:37:05.521Z,5.17
2018-01-23T21:39:32.198Z,3.60
2018-01-23T21:41:59.788Z,7.40
2018-01-23T21:44:27.244Z,4.80
2018-01-23T21:46:54.851Z,7.87
2018-01-23T21:49:21.512Z,7.13
2018-01-23T21:51:48.220Z,2.80
2018-01-23T21:54:14.953Z,2.37
2018-01-23T21:56:41.690Z,2.40
2018-01-23T21:59:09.158Z,2.83
2018-01-23T22:01:36.076Z,2.90
2018-01-23T22:04:03.969Z,3.00
2018-01-23T22:06:31.836Z,2.57
2018-01-23T22:08:59.291Z,4.00
2018-01-23T22:11:26.041Z,6.07
2018-01-23T22:13:53.500Z,4.80
2018-01-23T22:16:21.148Z,5.43
2018-01-23T22:18:48.025Z,3.70
2018-01-23T22:21:15.545Z,2.40
2018-01-23T22:23:42.433Z,2.60
2018-01-23T22:26:10.244Z,4.33
2018-01-23T22:28:36.921Z,4.93
2018-01-23T22:31:03.577Z,7.10
2018-01-23T22:33:30.555Z,4.60
2018-01-23T22:35:58.199Z,4.80
2018-01-23T22:38:25.675Z,3.10
2018-01-23T22:40:53.436Z,3.00
2018-01-23T22:43:21.121Z,2.53
2018-01-23T22:45:48.688Z,3.30
2018-01-23T22:48:15.401Z,3.33
2018-01-23T22:50:42.038Z,4.33
2018-01-23T22:53:08.673Z,3.57
2018-01-23T22:55:35.545Z,3.70
2018-01-23T22:58:03.019Z,2.93
2018-01-23T23:00:30.585Z,4.17
2018-01-23T23:02:58.025Z,4.30
2018-01-23T23:05:24.660Z,3.87
2018-01-23T23:07:51.641Z,3.60
2018-01-23T23:10:18.970Z,2.90
2018-01-23T23:12:45.604Z,2.67
2018-01-23T23:15:12.280Z,3.47
2018-01-23T23:17:39.705Z,6.03
2018-01-23T23:20:06.908Z,4.00
2018-01-23T23:22:34.473Z,4.17
2018-01-23T23:25:01.803Z,3.73
2018-01-23T23:27:28.554Z,4.07
2018-01-23T23:29:55.416Z,4.47
2018-01-23T23:32:22.990Z,3.93
2018-01-23T23:34:50.412Z,4.27
2018-01-23T23:37:17.066Z,4.13
2018-01-23T23:39:43.801Z,3.43
2018-01-23T23:42:10.456Z,3.40
2018-01-23T23:44:37.524Z,4.37
2018-01-23T23:47:05.028Z,4.93
2018-01-23T23:49:31.796Z,4.50
2018-01-23T23:51:58.596Z,4.10
2018-01-23T23:54:26.032Z,4.37
2018-01-23T23:56:53.099Z,3.50
2018-01-23T23:59:20.437Z,4.17
